Time;durP1;ratioP1;P1;durP2;ratioP2;P2;SDS_P1;SDS_P2;PMS_P1;PMS_P2;Temp;Humidity;BMP_temperature;BMP_pressure;BME280_temperature;BME280_humidity;BME280_pressure;Samples;Min_cycle;Max_cycle;Signal;HPM_P1;HPM_P2
2022/11/24 00:01:55;;;;;;;22.70;10.25;;;6.60;99.90;;;;;;4999576;28;20038;-66
2022/11/24 00:04:21;;;;;;;20.27;10.77;;;6.60;99.90;;;;;;4994700;28;20096;-65
2022/11/24 00:06:46;;;;;;;19.65;10.10;;;6.60;99.90;;;;;;4997879;28;20049;-66
2022/11/24 00:09:12;;;;;;;22.33;10.02;;;6.50;99.90;;;;;;4997257;28;20497;-66
2022/11/24 00:11:38;;;;;;;23.80;9.93;;;6.60;99.90;;;;;;4993730;28;20095;-66
2022/11/24 00:14:05;;;;;;;23.20;9.57;;;6.50;99.90;;;;;;4998100;28;20540;-67
2022/11/24 00:16:33;;;;;;;28.05;10.38;;;6.50;99.90;;;;;;4996496;28;20418;-66
2022/11/24 00:19:01;;;;;;;21.17;9.15;;;6.50;99.90;;;;;;5001487;28;20054;-66
2022/11/24 00:21:28;;;;;;;27.58;9.82;;;6.60;99.90;;;;;;4995651;28;20393;-65
2022/11/24 00:23:54;;;;;;;24.38;9.32;;;6.60;99.90;;;;;;5000002;28;20080;-66
2022/11/24 00:26:26;;;;;;;18.05;8.65;;;6.60;99.90;;;;;;5003935;28;20061;-66
2022/11/24 00:28:54;;;;;;;24.38;9.25;;;6.60;99.90;;;;;;5004179;28;20066;-67
2022/11/24 00:31:32;;;;;;;20.67;8.48;;;6.60;99.90;;;;;;5006522;28;20132;-67
2022/11/24 00:34:00;;;;;;;21.30;8.60;;;6.60;99.90;;;;;;5005243;28;20562;-65
2022/11/24 00:36:29;;;;;;;21.77;8.85;;;6.60;99.90;;;;;;5003249;28;20041;-66
2022/11/24 00:38:57;;;;;;;18.05;8.55;;;6.60;99.90;;;;;;5026389;28;20041;-66
2022/11/24 00:41:23;;;;;;;20.98;8.48;;;6.60;99.90;;;;;;5009671;28;20074;-66
2022/11/24 00:43:50;;;;;;;23.30;7.95;;;6.60;99.90;;;;;;5008754;28;20068;-66
2022/11/24 00:46:15;;;;;;;25.30;8.77;;;6.50;99.90;;;;;;5006950;28;20042;-66
2022/11/24 00:48:41;;;;;;;22.73;8.05;;;6.50;99.90;;;;;;5004465;28;20049;-66
2022/11/24 00:51:10;;;;;;;23.63;8.80;;;6.50;99.90;;;;;;5008150;28;20042;-66
2022/11/24 00:53:36;;;;;;;22.88;8.63;;;6.50;99.90;;;;;;5007148;28;23065;-66
2022/11/24 00:56:05;;;;;;;26.48;8.00;;;6.50;99.90;;;;;;5008343;28;20046;-67
2022/11/24 00:58:31;;;;;;;23.38;7.60;;;6.50;99.90;;;;;;5003149;28;20083;-67
2022/11/24 01:01:03;;;;;;;20.65;7.40;;;6.50;99.90;;;;;;4997062;28;20069;-66
2022/11/24 01:03:29;;;;;;;16.95;8.07;;;6.40;99.90;;;;;;4994379;28;20050;-66
2022/11/24 01:05:54;;;;;;;24.08;8.05;;;6.40;99.90;;;;;;4998266;28;20051;-66
2022/11/24 01:08:20;;;;;;;20.67;7.82;;;6.40;99.90;;;;;;5001178;28;20073;-66
2022/11/24 01:10:46;;;;;;;19.88;7.65;;;6.50;99.90;;;;;;4999897;28;20033;-68
2022/11/24 01:13:12;;;;;;;19.45;7.65;;;6.40;99.90;;;;;;4998481;28;20037;-66
2022/11/24 01:15:38;;;;;;;22.20;6.60;;;6.30;99.90;;;;;;5004164;28;20034;-66
2022/11/24 01:18:04;;;;;;;30.90;6.93;;;6.30;99.90;;;;;;4999923;28;20034;-67
2022/11/24 01:20:30;;;;;;;26.48;7.38;;;6.30;99.90;;;;;;4982212;28;20514;-66
2022/11/24 01:22:56;;;;;;;23.63;8.18;;;6.30;99.90;;;;;;4999050;28;20057;-66
2022/11/24 01:25:22;;;;;;;21.50;6.75;;;6.30;99.90;;;;;;5000518;28;20038;-66
2022/11/24 01:27:47;;;;;;;18.67;6.68;;;6.30;99.90;;;;;;5003330;28;20333;-66
2022/11/24 01:30:13;;;;;;;21.67;7.53;;;6.30;99.90;;;;;;5003162;28;20042;-66
2022/11/24 01:32:38;;;;;;;25.98;7.60;;;6.30;99.90;;;;;;5009401;28;20619;-66
2022/11/24 01:35:05;;;;;;;21.27;6.22;;;6.20;99.90;;;;;;5002022;28;20610;-66
2022/11/24 01:37:31;;;;;;;14.82;5.60;;;6.20;99.90;;;;;;5005981;28;20087;-66
2022/11/24 01:39:57;;;;;;;18.80;5.90;;;6.10;99.90;;;;;;5007581;28;20565;-67
2022/11/24 01:42:23;;;;;;;22.77;6.47;;;6.10;99.90;;;;;;5011096;28;20085;-66
2022/11/24 01:45:12;;;;;;;19.23;6.20;;;6.20;99.90;;;;;;5010535;28;20054;-66
2022/11/24 01:47:40;;;;;;;21.30;6.15;;;6.20;99.90;;;;;;5010160;28;20038;-67
2022/11/24 01:50:15;;;;;;;27.73;6.85;;;6.30;99.90;;;;;;5003820;28;20365;-67
2022/11/24 01:52:46;;;;;;;18.02;6.15;;;6.20;99.90;;;;;;5006572;28;20049;-67
2022/11/24 01:55:18;;;;;;;17.85;5.28;;;6.30;99.90;;;;;;5004053;28;20081;-66
2022/11/24 01:57:49;;;;;;;19.52;5.18;;;6.20;99.90;;;;;;5003998;28;20029;-67
2022/11/24 02:00:15;;;;;;;30.17;5.70;;;6.20;99.90;;;;;;5001157;28;20488;-67
2022/11/24 02:02:43;;;;;;;29.90;5.75;;;6.20;99.90;;;;;;5002947;28;20712;-65
2022/11/24 02:05:19;;;;;;;23.77;6.15;;;6.30;99.90;;;;;;4999026;28;20045;-67
2022/11/24 02:07:46;;;;;;;25.30;5.93;;;6.40;99.90;;;;;;4991745;28;20525;-66
2022/11/24 02:10:14;;;;;;;22.63;5.72;;;6.30;99.90;;;;;;4995370;28;20120;-67
2022/11/24 02:12:45;;;;;;;18.75;5.20;;;6.20;99.90;;;;;;4999480;28;20038;-66
2022/11/24 02:15:11;;;;;;;25.58;5.22;;;6.20;99.90;;;;;;4997281;28;20111;-66
2022/11/24 02:17:37;;;;;;;17.52;5.45;;;6.20;99.90;;;;;;4998611;28;20414;-67
2022/11/24 02:20:09;;;;;;;17.77;4.82;;;6.10;99.90;;;;;;4997375;28;20137;-67
2022/11/24 02:22:54;;;;;;;20.23;6.43;;;6.20;99.90;;;;;;4994925;28;20081;-66
2022/11/24 02:25:50;;;;;;;27.35;4.82;;;6.20;99.90;;;;;;5002396;28;20052;-66
2022/11/24 02:28:19;;;;;;;20.90;5.20;;;6.20;99.90;;;;;;4995274;28;20052;-66
2022/11/24 02:30:45;;;;;;;25.33;5.50;;;6.20;99.90;;;;;;5004916;28;20041;-67
2022/11/24 02:33:11;;;;;;;20.15;5.25;;;6.30;99.90;;;;;;5009466;28;20038;-66
2022/11/24 02:35:38;;;;;;;21.85;4.82;;;6.20;99.90;;;;;;5005339;28;20050;-66
2022/11/24 02:38:03;;;;;;;27.08;6.68;;;6.20;99.90;;;;;;5011069;28;20037;-67
2022/11/24 02:40:29;;;;;;;22.05;4.70;;;6.20;99.90;;;;;;4999834;28;20386;-66
2022/11/24 02:43:01;;;;;;;20.67;5.88;;;6.10;99.90;;;;;;5005773;28;20374;-67
2022/11/24 02:45:27;;;;;;;22.15;5.22;;;6.10;99.90;;;;;;5002253;28;20041;-67
2022/11/24 02:47:53;;;;;;;33.03;5.05;;;6.10;99.90;;;;;;5007281;28;20040;-66
2022/11/24 02:50:19;;;;;;;17.17;4.50;;;6.10;99.90;;;;;;5004805;28;20523;-67
2022/11/24 02:52:44;;;;;;;17.17;4.78;;;6.20;99.90;;;;;;4989564;28;20042;-66
2022/11/24 02:55:10;;;;;;;24.42;5.20;;;6.20;99.90;;;;;;5005031;28;20042;-67
2022/11/24 02:57:36;;;;;;;20.58;5.30;;;6.30;99.90;;;;;;5005513;28;20026;-66
2022/11/24 03:00:02;;;;;;;17.98;5.20;;;6.30;99.90;;;;;;5005814;28;20041;-66
2022/11/24 03:02:27;;;;;;;19.02;5.22;;;6.30;99.90;;;;;;5003678;28;20092;-66
2022/11/24 03:04:53;;;;;;;23.10;4.78;;;6.30;99.90;;;;;;5005610;28;20456;-66
2022/11/24 03:07:19;;;;;;;24.73;5.95;;;6.30;99.90;;;;;;5003723;28;20131;-66
2022/11/24 03:09:44;;;;;;;20.52;5.40;;;6.40;99.90;;;;;;5003679;28;20100;-67
2022/11/24 03:12:10;;;;;;;22.08;5.10;;;6.30;99.90;;;;;;5003816;28;20559;-66
2022/11/24 03:14:36;;;;;;;23.42;5.82;;;6.30;99.90;;;;;;5005596;28;22359;-67
2022/11/24 03:17:01;;;;;;;14.40;4.47;;;6.30;99.90;;;;;;5003363;28;20152;-66
2022/11/24 03:19:27;;;;;;;23.63;5.65;;;6.30;99.90;;;;;;5007984;28;20517;-66
2022/11/24 03:21:52;;;;;;;28.00;5.22;;;6.40;99.90;;;;;;5002178;28;20363;-66
2022/11/24 03:24:18;;;;;;;15.23;4.97;;;6.40;99.90;;;;;;5007003;28;20053;-67
2022/11/24 03:26:44;;;;;;;20.08;4.43;;;6.30;99.90;;;;;;4995662;28;20417;-67
2022/11/24 03:29:10;;;;;;;24.77;4.65;;;6.30;99.90;;;;;;5004086;28;20042;-67
2022/11/24 03:31:35;;;;;;;26.30;5.57;;;6.30;99.90;;;;;;5008862;28;20041;-66
2022/11/24 03:34:01;;;;;;;17.50;4.82;;;6.30;99.90;;;;;;5005890;28;20049;-66
2022/11/24 03:36:27;;;;;;;19.45;4.93;;;6.30;99.90;;;;;;5000782;28;20046;-67
2022/11/24 03:38:52;;;;;;;17.98;4.72;;;6.30;99.90;;;;;;5002137;28;21510;-67
2022/11/24 03:41:18;;;;;;;15.63;4.90;;;6.40;99.90;;;;;;5004291;28;20032;-66
2022/11/24 03:43:43;;;;;;;22.42;4.75;;;6.50;99.90;;;;;;5004636;28;20075;-67
2022/11/24 03:46:10;;;;;;;13.98;3.95;;;6.50;99.90;;;;;;5004378;28;20056;-66
2022/11/24 03:48:35;;;;;;;22.08;4.47;;;6.50;99.90;;;;;;5006134;28;20057;-67
2022/11/24 03:51:02;;;;;;;15.20;4.47;;;6.60;99.90;;;;;;5002969;28;20496;-66
2022/11/24 03:53:29;;;;;;;27.42;5.82;;;6.60;99.90;;;;;;4990470;28;20092;-67
2022/11/24 03:55:56;;;;;;;17.13;4.88;;;6.60;99.90;;;;;;4997667;28;20543;-67
2022/11/24 03:58:22;;;;;;;17.40;4.53;;;6.60;99.90;;;;;;5001774;28;20452;-66
2022/11/24 04:00:48;;;;;;;21.38;4.20;;;6.50;99.90;;;;;;5005055;28;20046;-66
2022/11/24 04:03:14;;;;;;;21.10;4.72;;;6.40;99.90;;;;;;4999190;28;20038;-66
2022/11/24 04:05:40;;;;;;;18.77;4.00;;;6.30;99.90;;;;;;5004275;28;20040;-68
2022/11/24 04:08:05;;;;;;;21.05;4.70;;;6.30;99.90;;;;;;5000266;28;20034;-66
2022/11/24 04:10:34;;;;;;;23.50;4.30;;;6.20;99.90;;;;;;5002144;28;20069;-67
2022/11/24 04:13:00;;;;;;;19.33;3.88;;;6.30;99.90;;;;;;5004619;28;20042;-67
2022/11/24 04:15:26;;;;;;;16.38;4.05;;;6.30;99.90;;;;;;5000988;28;20092;-66
2022/11/24 04:17:54;;;;;;;16.77;4.15;;;6.20;99.90;;;;;;5003944;28;20458;-66
2022/11/24 04:20:20;;;;;;;15.68;3.53;;;6.20;99.90;;;;;;5006940;28;20042;-65
2022/11/24 04:22:45;;;;;;;17.50;3.78;;;6.10;99.90;;;;;;5002001;28;20056;-66
2022/11/24 04:25:11;;;;;;;22.30;4.63;;;6.10;99.90;;;;;;5002286;28;20038;-67
2022/11/24 04:27:37;;;;;;;17.70;4.13;;;6.10;99.90;;;;;;4999450;28;20045;-66
2022/11/24 04:30:05;;;;;;;15.15;3.30;;;6.20;99.90;;;;;;5003865;28;20113;-66
2022/11/24 04:32:30;;;;;;;22.02;4.00;;;6.20;99.90;;;;;;5002476;28;20072;-66
2022/11/24 04:34:56;;;;;;;18.02;3.60;;;6.20;99.90;;;;;;5002542;28;20029;-67
2022/11/24 04:37:21;;;;;;;15.52;3.75;;;6.20;99.90;;;;;;4998046;28;20046;-67
2022/11/24 04:39:47;;;;;;;20.75;3.45;;;6.10;99.90;;;;;;5004508;28;20041;-66
2022/11/24 04:42:13;;;;;;;12.80;3.28;;;6.00;99.90;;;;;;5003311;28;20054;-67
2022/11/24 04:44:38;;;;;;;14.57;3.50;;;6.10;99.90;;;;;;5000107;28;20060;-66
2022/11/24 04:47:04;;;;;;;18.52;3.53;;;6.00;99.90;;;;;;5006100;28;20069;-66
2022/11/24 04:49:30;;;;;;;17.58;3.67;;;5.90;99.90;;;;;;4997544;28;20489;-66
2022/11/24 04:51:55;;;;;;;13.55;3.35;;;5.80;99.90;;;;;;5003963;28;20096;-66
2022/11/24 04:54:21;;;;;;;15.23;3.10;;;5.70;99.90;;;;;;5004742;28;20030;-66
2022/11/24 04:56:50;;;;;;;8.63;3.05;;;5.70;99.90;;;;;;4998398;28;20701;-65
2022/11/24 04:59:17;;;;;;;13.82;2.90;;;5.60;99.90;;;;;;4994291;28;20136;-65
2022/11/24 05:01:43;;;;;;;13.93;2.92;;;5.60;99.90;;;;;;4997960;28;20046;-66
2022/11/24 05:04:11;;;;;;;17.17;4.68;;;5.60;99.90;;;;;;5002235;28;20049;-66
2022/11/24 05:06:37;;;;;;;12.80;3.53;;;5.50;99.90;;;;;;4998915;28;20121;-66
2022/11/24 05:09:03;;;;;;;14.90;2.88;;;5.70;99.90;;;;;;4999247;28;20038;-66
2022/11/24 05:11:29;;;;;;;17.92;3.72;;;5.60;99.90;;;;;;5001327;28;20060;-66
2022/11/24 05:13:54;;;;;;;13.77;3.38;;;5.50;99.90;;;;;;4999048;28;20478;-66
2022/11/24 05:16:20;;;;;;;17.17;3.17;;;5.60;99.90;;;;;;4999019;28;21451;-66
2022/11/24 05:18:45;;;;;;;12.93;3.33;;;5.50;99.90;;;;;;4998510;28;20153;-66
2022/11/24 05:21:11;;;;;;;17.67;3.33;;;5.50;99.90;;;;;;5003831;28;20731;-66
2022/11/24 05:23:37;;;;;;;15.48;3.72;;;5.40;99.90;;;;;;5003953;28;20053;-66
2022/11/24 05:26:03;;;;;;;20.15;3.33;;;5.50;99.90;;;;;;5005916;28;20141;-66
2022/11/24 05:28:28;;;;;;;15.50;3.22;;;5.50;99.90;;;;;;5008691;28;20038;-66
2022/11/24 05:30:58;;;;;;;12.20;3.47;;;5.40;99.90;;;;;;5005771;28;20041;-66
2022/11/24 05:33:23;;;;;;;18.42;3.63;;;5.40;99.90;;;;;;5002140;28;20486;-67
2022/11/24 05:35:49;;;;;;;22.08;3.55;;;5.40;99.90;;;;;;5004198;28;20041;-66
2022/11/24 05:38:16;;;;;;;15.68;3.60;;;5.50;99.90;;;;;;5004539;28;20529;-66
2022/11/24 05:40:42;;;;;;;13.52;3.10;;;5.50;99.90;;;;;;5006443;28;20049;-66
2022/11/24 05:43:15;;;;;;;21.30;3.13;;;5.60;99.90;;;;;;5009768;28;20053;-67
2022/11/24 05:45:41;;;;;;;16.92;2.95;;;5.50;99.90;;;;;;5007552;28;20058;-66
2022/11/24 05:48:09;;;;;;;18.23;3.83;;;5.60;99.90;;;;;;4996595;28;20064;-65
2022/11/24 05:50:35;;;;;;;18.92;3.55;;;5.50;99.90;;;;;;5008754;28;20505;-66
2022/11/24 05:53:03;;;;;;;21.25;3.72;;;5.60;99.90;;;;;;5008757;28;20053;-66
2022/11/24 05:55:29;;;;;;;14.02;3.03;;;5.60;99.90;;;;;;4999963;28;20045;-66
2022/11/24 05:58:06;;;;;;;15.15;2.60;;;5.50;99.90;;;;;;5004721;28;20547;-66
2022/11/24 06:00:33;;;;;;;17.17;5.03;;;5.60;99.90;;;;;;4993831;28;20136;-68
2022/11/24 06:02:59;;;;;;;16.40;3.25;;;5.60;99.90;;;;;;5010429;28;20045;-67
2022/11/24 06:05:26;;;;;;;20.52;3.75;;;5.50;99.90;;;;;;4997596;28;20041;-66
2022/11/24 06:07:52;;;;;;;15.68;3.38;;;5.50;99.90;;;;;;4995104;28;20367;-66
2022/11/24 06:10:19;;;;;;;20.58;3.72;;;5.50;99.90;;;;;;4998726;28;20042;-66
2022/11/24 06:12:45;;;;;;;22.58;4.53;;;5.50;99.90;;;;;;4998070;28;20052;-67
2022/11/24 06:15:11;;;;;;;15.30;3.13;;;5.50;99.90;;;;;;4997950;28;20413;-66
2022/11/24 06:17:38;;;;;;;18.30;4.53;;;5.50;99.90;;;;;;4997464;28;20038;-66
2022/11/24 06:20:05;;;;;;;16.10;3.10;;;5.40;99.90;;;;;;4994229;28;20042;-66
2022/11/24 06:22:31;;;;;;;15.48;3.22;;;5.60;99.90;;;;;;4997013;28;20049;-66
2022/11/24 06:24:56;;;;;;;23.60;3.58;;;5.50;99.90;;;;;;4992956;28;20034;-67
2022/11/24 06:27:22;;;;;;;15.15;3.30;;;5.50;99.90;;;;;;5001069;28;20053;-66
2022/11/24 06:29:48;;;;;;;14.55;3.10;;;5.60;99.90;;;;;;5004586;28;20037;-66
2022/11/24 06:32:14;;;;;;;18.50;3.92;;;5.50;99.90;;;;;;5006580;28;20054;-66
2022/11/24 06:34:40;;;;;;;17.15;3.80;;;5.60;99.90;;;;;;5007364;28;20041;-67
2022/11/24 06:37:05;;;;;;;22.98;3.50;;;5.70;99.90;;;;;;5005350;28;20083;-66
2022/11/24 06:39:31;;;;;;;13.15;2.90;;;5.60;99.90;;;;;;5002934;28;20038;-66
2022/11/24 06:41:57;;;;;;;21.90;3.95;;;5.50;99.90;;;;;;5000442;28;20124;-66
2022/11/24 06:44:22;;;;;;;21.80;3.85;;;5.50;99.90;;;;;;5003427;28;20115;-66
2022/11/24 06:46:48;;;;;;;14.70;3.35;;;5.60;99.90;;;;;;5001897;28;20038;-66
2022/11/24 06:49:14;;;;;;;22.90;3.60;;;5.60;99.90;;;;;;5007867;28;20045;-66
2022/11/24 06:51:40;;;;;;;26.95;4.63;;;5.60;99.90;;;;;;5007348;28;20042;-66
2022/11/24 06:54:07;;;;;;;26.98;4.28;;;5.60;99.90;;;;;;5000951;28;20046;-66
2022/11/24 06:56:33;;;;;;;17.15;3.38;;;5.60;99.90;;;;;;5004305;28;20034;-66
2022/11/24 06:58:58;;;;;;;14.90;3.78;;;5.50;99.90;;;;;;5006778;28;20378;-66
2022/11/24 07:01:26;;;;;;;14.05;3.25;;;5.60;99.90;;;;;;5005252;28;20662;-66
2022/11/24 07:03:53;;;;;;;19.88;4.22;;;5.60;99.90;;;;;;5006497;28;20037;-66
2022/11/24 07:06:20;;;;;;;18.05;3.83;;;5.50;99.90;;;;;;5002186;28;20038;-66
2022/11/24 07:08:46;;;;;;;20.05;4.13;;;5.60;99.90;;;;;;5007894;28;20092;-66
2022/11/24 07:11:15;;;;;;;16.95;3.30;;;5.60;99.90;;;;;;5006985;28;20492;-67
2022/11/24 07:13:42;;;;;;;17.77;3.60;;;5.60;99.90;;;;;;5005858;28;20121;-66
2022/11/24 07:16:12;;;;;;;24.35;3.83;;;5.60;99.90;;;;;;5005894;28;20045;-65
2022/11/24 07:18:37;;;;;;;21.15;4.13;;;5.60;99.90;;;;;;5009202;28;20057;-66
2022/11/24 07:21:04;;;;;;;18.85;3.53;;;5.70;99.90;;;;;;5007953;28;20488;-65
2022/11/24 07:23:29;;;;;;;21.63;3.63;;;5.60;99.90;;;;;;5005969;28;20042;-66
2022/11/24 07:25:55;;;;;;;16.02;4.53;;;5.70;99.90;;;;;;5001085;28;20466;-67
2022/11/24 07:28:21;;;;;;;19.85;4.43;;;5.70;99.90;;;;;;5008378;28;20042;-67
2022/11/24 07:30:46;;;;;;;20.50;4.00;;;5.80;99.90;;;;;;5004133;28;20030;-65
2022/11/24 07:33:12;;;;;;;18.88;4.45;;;5.70;99.90;;;;;;5000026;28;20045;-66
2022/11/24 07:35:37;;;;;;;19.90;3.88;;;5.70;99.90;;;;;;5001352;28;20065;-67
2022/11/24 07:38:03;;;;;;;22.23;4.18;;;5.70;99.90;;;;;;5004237;28;20058;-66
2022/11/24 07:40:28;;;;;;;17.52;3.67;;;5.80;99.90;;;;;;5005019;28;20033;-66
2022/11/24 07:42:54;;;;;;;22.83;4.15;;;5.70;99.90;;;;;;5006906;28;20046;-65
2022/11/24 07:45:20;;;;;;;13.32;3.33;;;5.70;99.90;;;;;;5006571;28;20044;-66
2022/11/24 07:47:46;;;;;;;18.98;4.20;;;5.70;99.90;;;;;;5001288;28;20030;-66
2022/11/24 07:50:12;;;;;;;24.25;3.92;;;5.70;99.90;;;;;;5007510;28;20038;-66
2022/11/24 07:52:37;;;;;;;11.57;3.42;;;5.60;99.90;;;;;;5006291;28;20176;-66
2022/11/24 07:55:04;;;;;;;17.48;3.63;;;5.60;99.90;;;;;;5005012;28;20932;-66
2022/11/24 07:57:29;;;;;;;14.45;3.33;;;5.60;99.90;;;;;;5002849;28;20180;-66
2022/11/24 07:59:55;;;;;;;21.42;3.72;;;5.60;99.90;;;;;;5006696;28;20129;-66
2022/11/24 08:02:21;;;;;;;19.65;3.72;;;5.50;99.90;;;;;;5009243;28;20033;-66
2022/11/24 08:04:46;;;;;;;17.45;4.32;;;5.60;99.90;;;;;;5006273;28;20615;-66
2022/11/24 08:07:12;;;;;;;20.95;4.13;;;5.50;99.90;;;;;;5005632;28;20529;-66
2022/11/24 08:09:37;;;;;;;24.15;4.72;;;5.70;99.90;;;;;;5023013;28;20452;-66
2022/11/24 08:12:03;;;;;;;21.70;4.30;;;5.70;99.90;;;;;;5007234;28;20133;-66
2022/11/24 08:14:29;;;;;;;22.50;4.75;;;5.70;99.90;;;;;;5008236;28;20049;-66
2022/11/24 08:16:54;;;;;;;21.48;4.63;;;5.70;99.90;;;;;;5004360;28;20121;-65
2022/11/24 08:19:21;;;;;;;20.38;3.85;;;5.70;99.90;;;;;;5009407;28;20038;-66
2022/11/24 08:21:46;;;;;;;16.60;4.38;;;5.70;99.90;;;;;;5007307;28;20131;-65
2022/11/24 08:24:14;;;;;;;19.83;4.45;;;5.70;99.90;;;;;;5010534;28;20081;-66
2022/11/24 08:26:40;;;;;;;22.25;4.90;;;5.70;99.90;;;;;;5009329;28;20116;-65
2022/11/24 08:29:06;;;;;;;30.50;5.50;;;5.90;99.90;;;;;;5003159;28;20042;-65
2022/11/24 08:31:32;;;;;;;20.58;4.97;;;5.90;99.90;;;;;;5005906;28;20050;-67
2022/11/24 08:33:59;;;;;;;21.90;4.55;;;5.90;99.90;;;;;;5006742;28;20054;-65
2022/11/24 08:36:24;;;;;;;22.60;4.57;;;6.00;99.90;;;;;;5006882;28;20045;-67
2022/11/24 08:38:58;;;;;;;13.18;4.32;;;6.10;99.90;;;;;;5013945;28;20045;-65
2022/11/24 08:41:25;;;;;;;20.40;5.38;;;6.10;99.90;;;;;;5012382;28;20052;-66
2022/11/24 08:43:50;;;;;;;18.88;4.63;;;6.20;99.90;;;;;;5010000;28;20064;-66
2022/11/24 08:46:17;;;;;;;19.70;5.75;;;6.20;99.90;;;;;;5012830;28;20381;-65
2022/11/24 08:48:53;;;;;;;22.58;5.50;;;6.30;99.90;;;;;;5008459;28;20121;-67
2022/11/24 08:51:22;;;;;;;21.08;5.90;;;6.40;99.90;;;;;;5013350;28;20045;-66
2022/11/24 08:53:47;;;;;;;20.10;5.75;;;6.50;99.90;;;;;;5012365;28;20185;-65
2022/11/24 08:56:13;;;;;;;23.67;6.32;;;6.50;99.90;;;;;;5012401;28;20042;-66
2022/11/24 08:58:40;;;;;;;15.43;5.03;;;6.60;99.90;;;;;;5010408;28;20029;-66
2022/11/24 09:01:11;;;;;;;22.02;5.22;;;6.60;99.90;;;;;;5009169;28;20040;-67
2022/11/24 09:03:38;;;;;;;19.52;4.63;;;6.80;99.90;;;;;;5014109;28;20053;-65
2022/11/24 09:06:04;;;;;;;23.85;5.75;;;6.90;99.90;;;;;;5010733;28;20046;-65
2022/11/24 09:08:30;;;;;;;19.15;5.15;;;7.00;99.90;;;;;;5011889;28;20069;-65
2022/11/24 09:11:04;;;;;;;25.05;5.15;;;7.10;99.90;;;;;;5008412;28;20117;-65
2022/11/24 09:13:30;;;;;;;18.38;5.32;;;7.00;99.90;;;;;;5012356;28;20497;-65
2022/11/24 09:16:05;;;;;;;25.67;5.40;;;7.10;99.90;;;;;;5008556;28;20056;-66
2022/11/24 09:18:30;;;;;;;20.45;5.55;;;7.20;99.90;;;;;;5005352;28;20413;-66
2022/11/24 09:21:15;;;;;;;19.42;4.68;;;7.30;99.90;;;;;;5010240;28;20116;-65
2022/11/24 09:23:42;;;;;;;16.60;5.25;;;7.30;99.90;;;;;;5013713;28;20038;-66
2022/11/24 09:26:20;;;;;;;19.08;5.18;;;7.30;99.90;;;;;;5009721;28;20539;-65
2022/11/24 09:28:46;;;;;;;11.15;4.07;;;7.50;99.90;;;;;;5009345;28;20053;-67
2022/11/24 09:31:14;;;;;;;16.35;4.45;;;7.50;99.90;;;;;;5007647;28;20100;-65
2022/11/24 09:33:41;;;;;;;23.02;4.70;;;7.60;99.90;;;;;;5008355;28;20037;-66
2022/11/24 09:36:07;;;;;;;17.30;5.10;;;7.60;99.90;;;;;;5012829;28;20084;-65
2022/11/24 09:38:33;;;;;;;12.57;4.03;;;7.70;99.90;;;;;;5009099;28;20065;-66
2022/11/24 09:41:16;;;;;;;15.40;4.60;;;7.60;99.90;;;;;;5011369;28;20038;-66
2022/11/24 09:44:09;;;;;;;12.98;3.95;;;7.70;99.90;;;;;;5010311;28;20389;-65
2022/11/24 09:46:58;;;;;;;11.45;3.90;;;7.80;99.90;;;;;;5006879;28;20050;-67
2022/11/24 09:49:54;;;;;;;11.15;3.40;;;7.90;99.90;;;;;;5026703;28;20556;-65
2022/11/24 09:52:31;;;;;;;9.00;3.42;;;7.90;99.90;;;;;;4996347;28;20566;-65
2022/11/24 09:55:02;;;;;;;9.55;3.78;;;7.90;99.90;;;;;;5009023;28;20038;-66
2022/11/24 09:57:30;;;;;;;;;;;8.00;99.90;;;;;;5008635;28;20053;-66
2022/11/24 10:00:01;;;;;;;14.15;3.80;;;8.00;99.90;;;;;;5009436;28;19946;-66
2022/11/24 10:02:26;;;;;;;12.52;3.42;;;8.10;99.90;;;;;;5005989;28;20164;-66
2022/11/24 10:04:53;;;;;;;7.65;3.20;;;8.20;99.90;;;;;;5000810;28;20073;-65
2022/11/24 10:07:32;;;;;;;10.35;2.85;;;8.20;99.90;;;;;;5010741;28;20049;-65
2022/11/24 10:10:16;;;;;;;10.35;3.38;;;8.20;99.90;;;;;;5008087;28;20096;-65
2022/11/24 10:13:22;;;;;;;9.45;2.70;;;8.20;99.90;;;;;;5009237;28;20437;-65
2022/11/24 10:15:58;;;;;;;10.43;3.80;;;8.30;99.90;;;;;;5010439;28;20379;-65
2022/11/24 10:18:42;;;;;;;12.10;2.67;;;8.30;99.90;;;;;;5006249;28;20441;-66
2022/11/24 10:21:40;;;;;;;7.85;3.35;;;8.40;99.90;;;;;;5004003;28;20045;-65
2022/11/24 10:24:42;;;;;;;9.00;2.92;;;8.40;99.90;;;;;;5007944;28;20481;-66
2022/11/24 10:27:17;;;;;;;6.47;2.78;;;8.50;99.90;;;;;;5003913;28;20577;-66
2022/11/24 10:29:44;;;;;;;7.75;3.20;;;8.50;99.90;;;;;;5010674;28;20077;-66
2022/11/24 10:32:24;;;;;;;10.07;3.15;;;8.70;99.90;;;;;;5011831;28;20125;-66
2022/11/24 10:34:50;;;;;;;5.30;2.42;;;8.60;99.90;;;;;;5003984;28;20041;-66
2022/11/24 10:37:31;;;;;;;9.95;3.08;;;8.70;99.90;;;;;;4993113;28;20042;-65
2022/11/24 10:40:26;;;;;;;6.40;2.95;;;8.70;99.90;;;;;;5008825;28;20034;-65
2022/11/24 10:42:51;;;;;;;12.88;3.08;;;8.80;99.90;;;;;;4995358;28;20077;-67
2022/11/24 10:45:21;;;;;;;10.60;2.72;;;8.90;99.90;;;;;;5009371;28;20437;-66
2022/11/24 10:47:47;;;;;;;5.55;2.17;;;9.00;99.90;;;;;;5011854;28;20077;-65
2022/11/24 10:50:15;;;;;;;4.45;2.03;;;9.00;99.90;;;;;;5000815;28;20042;-66
2022/11/24 10:52:46;;;;;;;7.00;2.58;;;9.10;99.90;;;;;;4974178;28;20172;-65
2022/11/24 10:55:12;;;;;;;8.30;2.83;;;9.10;99.90;;;;;;5005108;28;20088;-65
2022/11/24 10:57:39;;;;;;;6.18;2.47;;;9.10;99.90;;;;;;5011470;28;20037;-65
2022/11/24 11:00:17;;;;;;;6.43;2.67;;;9.10;99.90;;;;;;5010312;28;20184;-66
2022/11/24 11:02:43;;;;;;;7.78;2.55;;;9.00;99.90;;;;;;5009737;28;20040;-65
2022/11/24 11:05:36;;;;;;;7.70;2.97;;;9.00;99.90;;;;;;5008270;28;20049;-67
2022/11/24 11:08:29;;;;;;;5.55;2.45;;;9.00;99.90;;;;;;5004321;28;20049;-67
2022/11/24 11:11:22;;;;;;;8.35;2.70;;;9.10;99.90;;;;;;5008758;28;20050;-66
2022/11/24 11:13:54;;;;;;;10.45;3.22;;;9.10;99.90;;;;;;5004314;28;20045;-65
2022/11/24 11:16:36;;;;;;;8.45;2.97;;;9.10;99.90;;;;;;5007266;28;20477;-66
2022/11/24 11:19:34;;;;;;;11.50;3.35;;;9.20;99.90;;;;;;5001941;28;20041;-66
2022/11/24 11:22:35;;;;;;;6.60;3.03;;;9.20;99.90;;;;;;5003179;28;20048;-65
2022/11/24 11:25:06;;;;;;;16.42;3.60;;;9.30;99.90;;;;;;5006436;28;20065;-65
2022/11/24 11:27:31;;;;;;;6.00;2.70;;;9.40;99.90;;;;;;5011172;28;20050;-65
2022/11/24 11:30:16;;;;;;;9.98;3.15;;;9.50;99.90;;;;;;5011161;28;20050;-66
2022/11/24 11:32:50;;;;;;;7.43;2.97;;;9.60;99.90;;;;;;5008393;28;20046;-66
2022/11/24 11:35:16;;;;;;;7.90;3.00;;;9.70;99.90;;;;;;5010000;28;20389;-68
2022/11/24 11:37:43;;;;;;;6.95;3.30;;;9.90;99.90;;;;;;5018116;28;20050;-66
2022/11/24 11:40:23;;;;;;;11.52;3.80;;;10.00;99.90;;;;;;5011290;28;20489;-67
2022/11/24 11:43:06;;;;;;;8.23;3.15;;;10.00;99.90;;;;;;5010750;28;20057;-66
2022/11/24 11:45:36;;;;;;;5.70;3.03;;;10.00;99.90;;;;;;5011025;28;20494;-67
2022/11/24 11:48:02;;;;;;;7.00;3.10;;;10.00;99.90;;;;;;5010399;28;20057;-65
2022/11/24 11:50:46;;;;;;;9.60;3.35;;;10.10;99.90;;;;;;5010785;28;20604;-65
2022/11/24 11:53:35;;;;;;;11.02;3.17;;;10.10;99.90;;;;;;5008594;28;20042;-66
2022/11/24 11:56:27;;;;;;;7.30;3.08;;;10.10;99.90;;;;;;5010526;28;20657;-67
2022/11/24 11:59:07;;;;;;;11.25;3.15;;;10.20;99.90;;;;;;5010167;28;20050;-66
2022/11/24 12:01:47;;;;;;;9.75;2.80;;;10.30;99.90;;;;;;5008822;28;20533;-65
2022/11/24 12:04:28;;;;;;;14.82;3.17;;;10.30;99.90;;;;;;5011820;28;20041;-67
2022/11/24 12:07:28;;;;;;;11.20;3.20;;;10.30;99.90;;;;;;5010774;28;20037;-66
2022/11/24 12:10:22;;;;;;;12.60;3.25;;;10.30;99.90;;;;;;5010324;28;20084;-68
2022/11/24 12:13:03;;;;;;;7.57;3.08;;;10.40;99.90;;;;;;4999807;28;20282;-66
2022/11/24 12:15:36;;;;;;;;;;;10.30;99.90;;;;;;5011961;28;20054;-66
2022/11/24 12:18:41;;;;;;;11.27;2.95;;;10.30;99.90;;;;;;5010447;28;19921;-65
2022/11/24 12:21:12;;;;;;;8.10;2.70;;;10.30;99.90;;;;;;5001980;28;20146;-67
2022/11/24 12:23:43;;;;;;;8.75;3.40;;;10.40;99.90;;;;;;5009755;28;20172;-68
2022/11/24 12:26:12;;;;;;;11.68;3.30;;;10.40;99.90;;;;;;5007870;28;20181;-65
2022/11/24 12:28:56;;;;;;;10.90;3.55;;;10.40;99.90;;;;;;5011578;28;20034;-66
2022/11/24 12:31:53;;;;;;;9.75;2.78;;;10.40;99.90;;;;;;5010693;28;20396;-67
2022/11/24 12:34:37;;;;;;;12.57;3.47;;;10.40;99.90;;;;;;4999974;28;20974;-66
2022/11/24 12:37:33;;;;;;;11.60;3.15;;;10.40;99.90;;;;;;5010728;28;20038;-66
2022/11/24 12:40:13;;;;;;;11.15;3.35;;;10.30;99.90;;;;;;5008098;28;20042;-65
2022/11/24 12:43:02;;;;;;;7.70;3.30;;;10.30;99.90;;;;;;5008303;28;20133;-66
2022/11/24 12:45:53;;;;;;;12.93;3.50;;;10.30;99.90;;;;;;5010957;28;20104;-67
2022/11/24 12:48:58;;;;;;;11.27;3.67;;;10.30;99.90;;;;;;5009267;28;20064;-66
2022/11/24 12:51:30;;;;;;;11.13;3.80;;;10.30;99.90;;;;;;5005112;28;20046;-66
2022/11/24 12:53:59;;;;;;;10.05;3.80;;;10.30;99.90;;;;;;4990957;28;20618;-66
2022/11/24 12:57:10;;;;;;;7.50;3.20;;;10.30;99.90;;;;;;5005451;28;20042;-66
2022/11/24 12:59:53;;;;;;;20.40;4.22;;;10.30;99.90;;;;;;4989068;28;20046;-67
2022/11/24 13:02:23;;;;;;;11.35;4.45;;;10.30;99.90;;;;;;4990384;28;20038;-67
2022/11/24 13:05:04;;;;;;;9.55;4.70;;;10.20;99.90;;;;;;4991827;28;20050;-66